Terminal Aerodrome Forecast
Issued by NWS Lake Charles, LA

Home | Current Version | Previous Version | Text Only | Print | Product List | Glossary On
Versions: 1 2 3 4 5 6 7 8 9 10 11 12 13 14 15 16 17 18 19
872
FTUS44 KLCH 270524
TAFLCH
TAF
KLCH 270524Z 2706/2806 14011KT P6SM VCSH SCT007 BKN015
     FM270800 13009KT P6SM VCSH BKN007
     FM271500 17007KT P6SM VCTS SCT007 BKN015CB
     FM271800 19012G18KT P6SM VCTS SCT015 BKN025CB
     FM280000 17010KT P6SM BKN015=

USA.gov is the U.S. government's official web portal to all federal, state and local government web resources and services.